Time;durP1;ratioP1;P1;durP2;ratioP2;P2;SDS_P1;SDS_P2;PMS_P1;PMS_P2;Temp;Humidity;BMP_temperature;BMP_pressure;BME280_temperature;BME280_humidity;BME280_pressure;Samples;Min_cycle;Max_cycle;Signal;HPM_P1;HPM_P2
2022/09/29 00:08:17;;;;;;;16.60;10.40;;;;;;;11.00;100.00;98665.52;658013;1276;138523;-88
2022/09/29 00:23:23;;;;;;;26.80;14.80;;;;;;;10.87;100.00;98660.94;658390;1274;138963;-88
2022/09/29 00:38:27;;;;;;;24.80;14.90;;;;;;;10.96;100.00;98653.31;658594;1276;139073;-88
2022/09/29 00:53:32;;;;;;;12.70;7.70;;;;;;;10.69;100.00;98646.84;658210;1274;139450;-88
2022/09/29 01:08:41;;;;;;;12.50;9.00;;;;;;;10.72;100.00;98654.93;659214;1275;138531;-88
2022/09/29 01:24:19;;;;;;;15.60;10.00;;;;;;;10.97;100.00;98651.86;658373;1275;138825;-88
2022/09/29 01:39:29;;;;;;;25.10;12.30;;;;;;;11.08;100.00;98664.75;656924;1277;139807;-88
2022/09/29 01:54:57;;;;;;;9.40;7.00;;;;;;;10.93;100.00;98677.71;658210;1274;139571;-87
2022/09/29 02:10:06;;;;;;;12.60;7.80;;;;;;;10.87;100.00;98691.10;658551;1274;138654;-90
2022/09/29 02:25:14;;;;;;;18.30;10.80;;;;;;;11.00;100.00;98702.60;658324;1275;138742;-87
2022/09/29 02:40:25;;;;;;;15.00;10.50;;;;;;;10.96;100.00;98719.55;658597;1276;138926;-88
2022/09/29 02:55:50;;;;;;;14.40;8.80;;;;;;;10.80;100.00;98725.20;659239;1274;139941;-88
2022/09/29 03:10:53;;;;;;;9.50;6.30;;;;;;;10.66;100.00;98734.23;658282;1276;139780;-90
2022/09/29 03:25:57;;;;;;;13.20;8.80;;;;;;;10.64;100.00;98742.70;658569;1276;138539;-91
2022/09/29 03:41:00;;;;;;;14.80;9.30;;;;;;;10.70;100.00;98750.11;658875;1276;139316;-90
2022/09/29 03:56:04;;;;;;;16.60;9.60;;;;;;;10.72;100.00;98756.54;658466;1277;138706;-90
2022/09/29 04:11:07;;;;;;;18.40;10.90;;;;;;;10.72;100.00;98768.88;658803;1276;139349;-92
2022/09/29 04:26:12;;;;;;;24.20;14.60;;;;;;;10.60;100.00;98784.46;660134;1277;139497;-92
2022/09/29 04:41:15;;;;;;;25.90;15.10;;;;;;;10.49;100.00;98801.84;658210;1277;1454093;-92
2022/09/29 04:56:18;;;;;;;29.40;17.50;;;;;;;10.43;100.00;98817.95;659280;1276;140821;-91
2022/09/29 05:11:22;;;;;;;47.30;24.50;;;;;;;10.30;100.00;98826.27;659039;1277;139436;-91
2022/09/29 05:26:25;;;;;;;33.60;20.00;;;;;;;10.40;100.00;98837.60;659174;1274;138931;-92
2022/09/29 05:41:28;;;;;;;31.60;17.50;;;;;;;10.48;100.00;98857.23;659068;1274;141248;-90
2022/09/29 05:56:31;;;;;;;39.10;21.10;;;;;;;10.50;100.00;98868.89;658565;1275;140305;-89
2022/09/29 06:11:35;;;;;;;42.40;22.30;;;;;;;10.67;100.00;98879.58;658366;1274;139527;-90
2022/09/29 06:26:38;;;;;;;50.60;25.30;;;;;;;10.82;100.00;98889.81;660129;1276;139496;-89
2022/09/29 06:41:50;;;;;;;44.40;23.60;;;;;;;10.91;100.00;98907.39;659460;1277;139742;-90
2022/09/29 06:56:54;;;;;;;40.00;21.20;;;;;;;11.13;100.00;98906.00;659470;1277;139622;-90
2022/09/29 07:11:57;;;;;;;33.80;19.00;;;;;;;11.45;100.00;98918.48;659038;1277;140143;-90
2022/09/29 07:27:00;;;;;;;31.10;19.10;;;;;;;11.50;100.00;98940.37;659368;1277;140160;-88
2022/09/29 12:18:01;;;;;;;13.60;9.60;;;;;;;13.55;87.09;99241.86;642383;1309;1109190;-87
2022/09/29 12:33:16;;;;;;;19.10;12.60;;;;;;;13.84;85.98;99245.05;654658;1289;139077;-88
2022/09/29 12:48:31;;;;;;;19.80;14.80;;;;;;;13.81;86.79;99256.11;654737;1289;139303;-87
2022/09/29 13:04:04;;;;;;;17.30;12.20;;;;;;;15.31;81.86;99265.63;660263;1288;139942;-88
2022/09/29 13:19:26;;;;;;;21.50;14.70;;;;;;;15.65;77.18;99266.23;652787;1289;138978;-87
2022/09/29 13:34:56;;;;;;;13.40;9.70;;;;;;;14.69;77.44;99277.09;651355;1290;138685;-88
2022/09/29 13:50:38;;;;;;;15.10;10.00;;;;;;;14.09;77.89;99289.52;651369;1289;138871;-87
2022/09/29 14:05:46;;;;;;;13.80;9.40;;;;;;;14.00;78.79;99300.86;651659;1289;138812;-87
2022/09/29 14:21:03;;;;;;;22.40;12.70;;;;;;;13.92;78.92;99313.04;652576;1289;139044;-86
2022/09/29 14:36:13;;;;;;;25.00;14.80;;;;;;;14.10;79.18;99312.29;653176;1289;138658;-88
2022/09/29 14:51:57;;;;;;;45.60;24.20;;;;;;;15.70;76.50;99330.63;653282;1286;139344;-87
2022/09/29 15:07:03;;;;;;;16.80;11.90;;;;;;;18.42;70.85;99341.38;653478;1286;140459;-87
2022/09/29 15:22:22;;;;;;;21.80;15.20;;;;;;;19.05;67.87;99360.10;653449;1286;138367;-89
2022/09/29 15:37:26;;;;;;;18.40;11.10;;;;;;;17.55;68.58;99381.17;655414;1286;138457;-88
2022/09/29 15:52:30;;;;;;;22.50;16.20;;;;;;;17.47;70.27;99393.64;653973;1286;138390;-86
2022/09/29 16:07:37;;;;;;;186.60;62.40;;;;;;;15.64;72.42;99406.75;654774;1286;138923;-85
2022/09/29 16:22:48;;;;;;;175.40;54.90;;;;;;;13.94;75.75;99408.30;656742;1286;140457;-85
2022/09/29 16:37:52;;;;;;;85.80;37.60;;;;;;;12.44;79.62;99427.91;656137;1285;141076;-85
2022/09/29 16:52:56;;;;;;;103.00;47.40;;;;;;;11.75;83.22;99431.41;656954;1286;139463;-86
2022/09/29 17:38:29;;;;;;;32.60;19.80;;;;;;;10.80;88.74;99476.11;642447;1312;1091962;-86
2022/09/29 17:53:33;;;;;;;142.30;63.50;;;;;;;10.37;91.02;99493.84;660525;1280;139514;-86
2022/09/29 18:08:37;;;;;;;100.30;42.20;;;;;;;10.19;92.28;99498.64;662071;1281;139382;-85
2022/09/29 18:23:41;;;;;;;47.40;27.20;;;;;;;9.85;93.08;99508.06;657756;1281;138567;-85
2022/09/29 18:38:45;;;;;;;102.90;50.20;;;;;;;9.59;94.81;99519.80;659204;1282;138497;-86
2022/09/29 18:53:49;;;;;;;215.40;94.90;;;;;;;9.47;94.52;99533.52;659735;1280;139018;-85
2022/09/29 19:08:54;;;;;;;169.60;70.60;;;;;;;9.19;94.60;99551.02;660449;1281;138597;-86
2022/09/29 19:23:58;;;;;;;168.60;75.60;;;;;;;8.98;94.80;99570.00;658267;1280;140207;-85
2022/09/29 19:39:03;;;;;;;71.20;37.40;;;;;;;8.59;96.06;99581.91;661997;1282;139067;-86
2022/09/29 19:54:09;;;;;;;48.90;26.80;;;;;;;8.39;98.22;99589.27;658787;1282;138454;-84
2022/09/29 20:09:16;;;;;;;58.50;30.50;;;;;;;8.44;98.33;99598.04;656939;1282;138805;-85
2022/09/29 20:24:24;;;;;;;47.60;22.70;;;;;;;8.30;97.50;99607.09;657527;1282;139286;-85
2022/09/29 20:39:27;;;;;;;101.40;46.10;;;;;;;8.14;97.66;99624.00;656432;1282;139180;-85
2022/09/29 20:54:30;;;;;;;89.10;40.70;;;;;;;8.02;98.39;99643.95;656921;1281;138611;-85
2022/09/29 21:09:34;;;;;;;75.40;39.50;;;;;;;7.73;99.29;99660.85;656986;1280;138910;-85
2022/09/29 21:24:38;;;;;;;71.20;37.60;;;;;;;7.62;99.82;99669.98;657525;1281;139779;-85
2022/09/29 21:39:41;;;;;;;101.50;47.00;;;;;;;7.44;99.06;99674.77;658025;1282;139663;-84
2022/09/29 21:54:44;;;;;;;91.50;40.30;;;;;;;7.29;98.82;99673.21;657043;1282;139196;-85
2022/09/29 22:09:48;;;;;;;61.10;30.10;;;;;;;7.14;98.34;99672.24;657585;1280;141626;-85
2022/09/29 22:24:51;;;;;;;69.20;32.60;;;;;;;6.98;98.58;99684.88;657714;1280;138895;-85
2022/09/29 22:39:54;;;;;;;65.30;34.10;;;;;;;6.79;98.72;99706.37;657417;1283;138654;-85
2022/09/29 22:54:58;;;;;;;50.90;26.20;;;;;;;6.44;99.19;99738.31;657321;1283;138577;-84
2022/09/29 23:10:01;;;;;;;67.80;30.00;;;;;;;6.23;100.00;99752.85;657279;1281;139125;-84
2022/09/29 23:25:05;;;;;;;46.20;23.70;;;;;;;6.33;100.00;99754.55;657253;1280;138760;-85
2022/09/29 23:40:08;;;;;;;34.80;20.10;;;;;;;6.34;100.00;99763.66;657015;1282;140132;-85
2022/09/29 23:55:11;;;;;;;36.50;19.20;;;;;;;6.34;99.99;99771.24;657325;1282;138631;-84
